createdAt,value
2023-04-03T00:01:31.119Z,1.60
2023-04-03T00:03:04.306Z,1.90
2023-04-03T00:04:37.459Z,1.80
2023-04-03T00:06:12.859Z,1.77
2023-04-03T00:07:45.955Z,1.80
2023-04-03T00:09:19.140Z,2.00
2023-04-03T00:10:52.392Z,1.60
2023-04-03T00:12:25.652Z,1.67
2023-04-03T00:13:58.854Z,2.10
2023-04-03T00:15:31.020Z,2.10
2023-04-03T00:17:04.237Z,1.90
2023-04-03T00:18:37.622Z,1.90
2023-04-03T00:20:11.278Z,2.13
2023-04-03T00:21:45.683Z,1.70
2023-04-03T00:23:19.061Z,1.73
2023-04-03T00:24:52.095Z,2.13
2023-04-03T00:26:25.589Z,2.30
2023-04-03T00:27:58.819Z,2.00
2023-04-03T00:29:31.933Z,1.83
2023-04-03T00:31:04.406Z,1.90
2023-04-03T00:32:37.523Z,1.90
2023-04-03T00:34:11.095Z,1.93
2023-04-03T00:35:44.661Z,2.20
2023-04-03T00:37:18.198Z,1.70
2023-04-03T00:38:51.580Z,1.80
2023-04-03T00:40:25.748Z,1.80
2023-04-03T00:42:00.133Z,1.70
2023-04-03T00:43:32.220Z,1.60
2023-04-03T00:45:35.013Z,1.60
2023-04-03T00:47:11.054Z,1.60
2023-04-03T00:48:46.593Z,1.60
2023-04-03T00:50:19.225Z,1.87
2023-04-03T00:51:52.751Z,1.90
2023-04-03T00:53:31.809Z,1.60
2023-04-03T00:55:08.517Z,1.90
2023-04-03T00:56:42.308Z,2.07
2023-04-03T00:58:17.255Z,2.00
2023-04-03T00:59:55.778Z,1.80
2023-04-03T01:01:31.683Z,1.73
2023-04-03T01:03:05.389Z,2.10
2023-04-03T01:04:40.877Z,1.60
2023-04-03T01:06:17.819Z,1.57
2023-04-03T01:07:53.885Z,1.93
2023-04-03T01:09:28.673Z,1.60
2023-04-03T01:11:01.908Z,1.80
2023-04-03T01:12:36.860Z,1.90
2023-04-03T01:14:09.946Z,2.00
2023-04-03T01:15:43.026Z,2.10
2023-04-03T01:17:33.645Z,1.90
2023-04-03T01:19:10.650Z,2.13
2023-04-03T01:21:07.880Z,1.87
2023-04-03T01:22:45.368Z,2.00
2023-04-03T01:24:39.883Z,1.80
2023-04-03T01:26:16.053Z,2.13
2023-04-03T01:27:49.157Z,1.70
2023-04-03T01:29:22.368Z,1.90
2023-04-03T01:31:02.589Z,1.93
2023-04-03T01:32:39.084Z,2.50
2023-04-03T01:34:12.224Z,2.20
2023-04-03T01:35:45.508Z,2.03
2023-04-03T01:37:18.956Z,2.27
2023-04-03T01:38:51.449Z,1.87
2023-04-03T01:40:24.931Z,1.80
2023-04-03T01:41:58.100Z,2.03
2023-04-03T01:43:36.840Z,2.10
2023-04-03T01:45:10.845Z,2.20
2023-04-03T01:46:44.099Z,2.00
2023-04-03T01:48:19.209Z,1.90
2023-04-03T01:49:52.286Z,2.27
2023-04-03T01:51:25.447Z,1.70
2023-04-03T01:52:58.557Z,2.20
2023-04-03T01:54:31.653Z,2.17
2023-04-03T01:56:04.840Z,1.83
2023-04-03T01:57:38.852Z,1.73
2023-04-03T01:59:12.091Z,2.00
2023-04-03T02:00:45.308Z,2.20
2023-04-03T02:02:18.380Z,2.33
2023-04-03T02:03:52.812Z,1.80
2023-04-03T02:05:24.924Z,2.00
2023-04-03T02:06:57.972Z,1.93
2023-04-03T02:08:31.815Z,1.83
2023-04-03T02:10:05.214Z,2.10
2023-04-03T02:11:38.369Z,1.73
2023-04-03T02:13:11.416Z,2.00
2023-04-03T02:14:44.572Z,1.80
2023-04-03T02:16:18.917Z,1.90
2023-04-03T02:17:52.097Z,2.17
2023-04-03T02:19:26.923Z,2.03
2023-04-03T02:20:58.979Z,2.10
2023-04-03T02:22:33.507Z,1.87
2023-04-03T02:24:07.387Z,2.10
2023-04-03T02:25:40.401Z,1.90
2023-04-03T02:27:13.546Z,1.80
2023-04-03T02:28:46.757Z,2.33
2023-04-03T02:30:20.368Z,2.10
2023-04-03T02:31:53.404Z,1.87
2023-04-03T02:33:27.825Z,1.63
2023-04-03T02:35:02.518Z,2.27
2023-04-03T02:36:35.777Z,1.80
2023-04-03T02:38:11.816Z,1.93
2023-04-03T02:39:45.296Z,2.43
2023-04-03T02:41:18.926Z,2.07
2023-04-03T02:42:52.375Z,1.60
2023-04-03T02:44:26.557Z,2.27
2023-04-03T02:46:00.406Z,1.90
2023-04-03T02:47:33.888Z,2.03
2023-04-03T02:49:07.397Z,1.80
2023-04-03T02:50:42.126Z,2.00
2023-04-03T02:52:15.521Z,1.50
2023-04-03T02:53:48.992Z,2.00
2023-04-03T02:55:26.995Z,2.05
2023-04-03T02:57:02.583Z,2.27
2023-04-03T02:58:35.036Z,1.50
2023-04-03T03:00:10.878Z,1.67
2023-04-03T03:01:44.302Z,2.00
2023-04-03T03:03:17.722Z,2.00
2023-04-03T03:04:51.146Z,2.08
2023-04-03T03:06:25.966Z,2.00
2023-04-03T03:07:59.539Z,1.95
2023-04-03T03:09:32.932Z,1.90
2023-04-03T03:11:05.908Z,1.70
2023-04-03T03:12:41.423Z,2.20
2023-04-03T03:14:14.811Z,2.05
2023-04-03T03:15:48.243Z,1.90
2023-04-03T03:17:21.823Z,2.10
2023-04-03T03:18:55.890Z,1.90
2023-04-03T03:20:30.606Z,1.90
2023-04-03T03:22:06.945Z,2.13
2023-04-03T03:23:40.575Z,1.80
2023-04-03T03:25:14.194Z,1.95
2023-04-03T03:26:47.596Z,1.70
2023-04-03T03:28:21.740Z,1.95
2023-04-03T03:29:55.110Z,2.45
2023-04-03T03:31:29.477Z,1.83
2023-04-03T03:33:01.932Z,2.00
2023-04-03T03:34:35.632Z,2.47
2023-04-03T03:36:09.330Z,2.08
2023-04-03T03:37:44.944Z,2.00
2023-04-03T03:39:18.525Z,1.88
2023-04-03T03:40:52.994Z,1.77
2023-04-03T03:42:27.857Z,1.92
2023-04-03T03:44:01.403Z,1.92
2023-04-03T03:45:36.906Z,1.90
2023-04-03T03:47:11.728Z,1.65
2023-04-03T03:48:45.470Z,1.90
2023-04-03T03:50:18.974Z,1.65
2023-04-03T03:51:52.700Z,1.90
2023-04-03T03:53:27.637Z,1.60
2023-04-03T03:55:04.678Z,1.75
2023-04-03T03:56:38.428Z,2.33
2023-04-03T03:58:10.841Z,1.80
2023-04-03T03:59:45.253Z,2.20
2023-04-03T04:01:19.055Z,1.80
2023-04-03T04:02:56.271Z,2.03
2023-04-03T04:04:32.704Z,2.10
2023-04-03T04:06:06.894Z,1.85
2023-04-03T04:07:39.435Z,1.70
2023-04-03T04:09:14.548Z,1.83
2023-04-03T04:10:47.149Z,1.70
2023-04-03T04:12:22.618Z,1.88
2023-04-03T04:13:56.063Z,1.95
2023-04-03T04:15:32.519Z,2.33
2023-04-03T04:17:06.230Z,1.95
2023-04-03T04:18:39.693Z,1.92
2023-04-03T04:20:13.787Z,1.90
2023-04-03T04:21:47.953Z,1.83
2023-04-03T04:23:21.775Z,1.90
2023-04-03T04:24:57.691Z,1.83
2023-04-03T04:26:31.131Z,1.83
2023-04-03T04:28:04.526Z,1.60
2023-04-03T04:29:38.245Z,2.33
2023-04-03T04:31:13.601Z,2.47
2023-04-03T04:32:48.086Z,2.03
2023-04-03T04:34:21.474Z,2.00
2023-04-03T04:35:55.131Z,1.98
2023-04-03T04:37:29.041Z,1.67
2023-04-03T04:39:02.568Z,2.42
2023-04-03T04:40:38.735Z,2.08
2023-04-03T04:42:15.551Z,1.95
2023-04-03T04:43:51.043Z,2.15
2023-04-03T04:45:24.480Z,2.38
2023-04-03T04:46:58.080Z,2.20
2023-04-03T04:48:32.773Z,2.10
2023-04-03T04:50:07.329Z,2.25
2023-04-03T04:51:51.201Z,2.30
2023-04-03T04:53:27.991Z,1.75
2023-04-03T04:55:01.764Z,2.25
2023-04-03T04:56:36.831Z,2.13
2023-04-03T04:58:11.076Z,2.40
2023-04-03T04:59:44.548Z,2.45
2023-04-03T05:01:17.921Z,2.47
2023-04-03T05:02:59.402Z,2.45
2023-04-03T05:04:32.892Z,2.40
2023-04-03T05:06:11.998Z,2.22
2023-04-03T05:07:45.890Z,2.40
2023-04-03T05:09:21.004Z,2.10
2023-04-03T05:10:56.232Z,2.40
2023-04-03T05:12:32.471Z,2.13
2023-04-03T05:14:08.523Z,2.40
2023-04-03T05:15:43.096Z,2.40
2023-04-03T05:17:17.156Z,2.08
2023-04-03T05:18:56.127Z,2.08
2023-04-03T05:20:30.269Z,2.00
2023-04-03T05:22:04.081Z,2.00
2023-04-03T05:23:37.641Z,2.33
2023-04-03T05:25:12.049Z,2.10
2023-04-03T05:26:48.631Z,1.95
2023-04-03T05:28:24.064Z,1.98
2023-04-03T05:29:57.817Z,2.50
2023-04-03T05:31:32.158Z,1.95
2023-04-03T05:33:05.024Z,2.40
2023-04-03T05:34:53.643Z,2.08
2023-04-03T05:36:27.488Z,2.28
2023-04-03T05:38:06.085Z,2.13
2023-04-03T05:39:41.479Z,2.42
2023-04-03T05:41:15.099Z,2.10
2023-04-03T05:42:50.041Z,2.40
2023-04-03T05:44:26.706Z,2.05
2023-04-03T05:46:01.861Z,2.22
2023-04-03T05:47:36.400Z,2.20
2023-04-03T05:49:10.269Z,2.15
2023-04-03T05:50:44.902Z,2.20
2023-04-03T05:52:24.345Z,2.22
2023-04-03T05:54:02.469Z,2.28
2023-04-03T05:55:37.332Z,2.33
2023-04-03T05:57:11.041Z,2.90
2023-04-03T05:58:44.462Z,2.40
2023-04-03T06:00:19.793Z,2.50
2023-04-03T06:02:02.924Z,2.25
2023-04-03T06:03:38.598Z,2.60
2023-04-03T06:05:14.075Z,2.67
2023-04-03T06:06:49.366Z,2.95
2023-04-03T06:08:22.945Z,2.40
2023-04-03T06:09:56.891Z,2.33
2023-04-03T06:11:31.012Z,2.53
2023-04-03T06:13:05.122Z,2.20
2023-04-03T06:14:38.566Z,2.30
2023-04-03T06:16:16.283Z,2.88
2023-04-03T06:17:49.654Z,2.40
2023-04-03T06:19:23.467Z,2.27
2023-04-03T06:21:01.815Z,2.10
2023-04-03T06:22:35.544Z,2.17
2023-04-03T06:24:09.362Z,2.10
2023-04-03T06:25:43.244Z,2.23
2023-04-03T06:27:16.628Z,2.70
2023-04-03T06:28:50.090Z,2.37
2023-04-03T06:30:24.181Z,2.63
2023-04-03T06:31:59.188Z,2.37
2023-04-03T06:33:32.589Z,2.43
2023-04-03T06:35:06.544Z,2.20
2023-04-03T06:36:40.350Z,2.20
2023-04-03T06:38:13.924Z,2.37
2023-04-03T06:39:47.265Z,2.17
2023-04-03T06:41:20.654Z,2.40
2023-04-03T06:42:54.005Z,2.40
2023-04-03T06:44:27.609Z,2.13
2023-04-03T06:46:01.415Z,2.60
2023-04-03T06:47:36.198Z,2.73
2023-04-03T06:49:09.597Z,2.33
2023-04-03T06:50:45.032Z,2.43
2023-04-03T06:52:18.675Z,2.23
2023-04-03T06:53:52.602Z,2.40
2023-04-03T06:55:26.008Z,2.33
2023-04-03T06:56:59.668Z,2.43
2023-04-03T06:58:33.253Z,2.40
2023-04-03T07:00:08.069Z,2.60
2023-04-03T07:01:41.703Z,2.10
2023-04-03T07:03:17.284Z,2.43
2023-04-03T07:04:51.130Z,2.27
2023-04-03T07:06:24.568Z,2.10
2023-04-03T07:07:57.951Z,2.30
2023-04-03T07:09:33.806Z,2.67
2023-04-03T07:11:07.930Z,2.40
2023-04-03T07:12:41.952Z,2.60
2023-04-03T07:14:15.381Z,2.00
2023-04-03T07:15:50.322Z,2.40
2023-04-03T07:17:23.848Z,2.27
2023-04-03T07:18:58.598Z,2.50
2023-04-03T07:20:32.237Z,2.20
2023-04-03T07:22:05.829Z,2.30
2023-04-03T07:23:39.700Z,2.10
2023-04-03T07:25:15.250Z,2.90
2023-04-03T07:26:51.742Z,2.57
2023-04-03T07:28:26.552Z,2.60
2023-04-03T07:29:59.914Z,2.20
2023-04-03T07:31:34.897Z,2.50
2023-04-03T07:33:08.398Z,2.30
2023-04-03T07:34:43.229Z,2.40
2023-04-03T07:36:18.030Z,2.30
2023-04-03T07:37:51.739Z,2.47
2023-04-03T07:39:25.163Z,2.60
2023-04-03T07:40:59.164Z,2.83
2023-04-03T07:42:32.623Z,2.63
2023-04-03T07:44:06.472Z,2.43
2023-04-03T07:45:40.163Z,2.40
2023-04-03T07:47:15.208Z,2.70
2023-04-03T07:48:48.841Z,2.83
2023-04-03T07:50:23.683Z,3.03
2023-04-03T07:51:57.184Z,2.37
2023-04-03T07:53:30.719Z,2.40
2023-04-03T07:55:04.154Z,2.20
2023-04-03T07:56:37.584Z,2.43
2023-04-03T07:58:11.665Z,2.40
2023-04-03T07:59:45.052Z,2.70
2023-04-03T08:01:18.479Z,2.50
2023-04-03T08:02:52.855Z,2.77
2023-04-03T08:04:27.230Z,2.70
2023-04-03T08:06:07.350Z,2.40
2023-04-03T08:07:40.826Z,2.73
2023-04-03T08:09:14.473Z,2.50
2023-04-03T08:10:50.657Z,2.47
2023-04-03T08:12:24.115Z,2.37
2023-04-03T08:13:57.806Z,2.30
2023-04-03T08:15:32.443Z,2.70
2023-04-03T08:17:06.471Z,2.90
2023-04-03T08:18:40.530Z,2.73
2023-04-03T08:20:14.275Z,2.40
2023-04-03T08:21:49.051Z,2.60
2023-04-03T08:23:22.511Z,2.57
2023-04-03T08:24:59.423Z,2.47
2023-04-03T08:26:33.103Z,2.50
2023-04-03T08:28:06.572Z,2.50
2023-04-03T08:29:39.951Z,2.63
2023-04-03T08:31:14.770Z,2.27
2023-04-03T08:32:48.390Z,2.60
2023-04-03T08:34:22.273Z,2.67
2023-04-03T08:35:55.714Z,2.67
2023-04-03T08:37:31.163Z,2.40
2023-04-03T08:39:04.945Z,2.50
2023-04-03T08:40:38.379Z,2.50
2023-04-03T08:42:17.473Z,2.40
2023-04-03T08:44:00.637Z,2.47
2023-04-03T08:45:40.626Z,2.33
2023-04-03T08:47:17.601Z,2.00
2023-04-03T08:48:51.920Z,2.90
2023-04-03T08:50:29.477Z,2.77
2023-04-03T08:52:06.649Z,2.40
2023-04-03T08:53:43.234Z,2.80
2023-04-03T08:55:21.207Z,2.80
2023-04-03T08:56:55.438Z,2.30
2023-04-03T08:58:29.208Z,2.70
2023-04-03T09:00:04.939Z,2.80
2023-04-03T09:01:39.600Z,2.77
2023-04-03T09:03:15.336Z,2.30
2023-04-03T09:04:49.023Z,2.60
2023-04-03T09:06:24.051Z,2.23
2023-04-03T09:08:00.016Z,2.37
2023-04-03T09:09:37.510Z,2.87
2023-04-03T09:11:15.299Z,2.40
2023-04-03T09:12:51.410Z,3.30
2023-04-03T09:14:28.792Z,2.87
2023-04-03T09:16:03.189Z,2.33
2023-04-03T09:17:40.942Z,3.10
2023-04-03T09:19:18.293Z,2.40
2023-04-03T09:20:56.146Z,2.33
2023-04-03T09:22:32.783Z,2.20
2023-04-03T09:24:09.505Z,2.33
2023-04-03T09:25:44.838Z,3.10
2023-04-03T09:27:18.444Z,2.13
2023-04-03T09:28:52.939Z,2.07
2023-04-03T09:30:27.682Z,2.07
2023-04-03T09:32:02.691Z,1.93
2023-04-03T09:33:37.934Z,1.87
2023-04-03T09:35:23.485Z,2.40
2023-04-03T09:37:06.869Z,2.00
2023-04-03T09:38:40.327Z,2.10
2023-04-03T09:40:32.379Z,1.93
2023-04-03T09:42:08.151Z,2.40
2023-04-03T09:43:41.917Z,2.20
2023-04-03T09:45:25.694Z,2.03
2023-04-03T09:46:59.296Z,1.80
2023-04-03T09:48:32.770Z,1.80
2023-04-03T09:50:20.603Z,2.00
2023-04-03T09:51:54.712Z,2.10
2023-04-03T09:53:30.278Z,4.50
2023-04-03T09:55:09.807Z,2.10
2023-04-03T09:56:43.225Z,1.83
2023-04-03T09:58:36.131Z,2.20
2023-04-03T10:00:22.915Z,2.20
2023-04-03T10:02:00.864Z,2.47
2023-04-03T10:03:35.732Z,1.93
2023-04-03T10:05:30.177Z,2.10
2023-04-03T10:07:03.525Z,1.90
2023-04-03T10:08:37.446Z,2.10
2023-04-03T10:10:21.002Z,2.03
2023-04-03T10:12:03.229Z,2.00
2023-04-03T10:13:48.807Z,2.17
2023-04-03T10:15:24.382Z,2.03
2023-04-03T10:17:03.315Z,1.77
2023-04-03T10:18:45.570Z,1.87
2023-04-03T10:20:27.316Z,1.60
2023-04-03T10:22:02.522Z,1.80
2023-04-03T10:23:39.168Z,1.70
2023-04-03T10:25:15.876Z,1.50
2023-04-03T10:26:56.625Z,1.53
2023-04-03T10:28:32.803Z,1.40
2023-04-03T10:30:13.897Z,1.77
2023-04-03T10:31:49.210Z,1.60
2023-04-03T10:33:32.035Z,1.37
2023-04-03T10:35:10.836Z,1.43
2023-04-03T10:36:47.050Z,1.80
2023-04-03T10:38:23.906Z,1.40
2023-04-03T10:40:00.912Z,1.40
2023-04-03T10:41:42.055Z,1.27
2023-04-03T10:43:20.614Z,1.30
2023-04-03T10:44:58.870Z,1.20
2023-04-03T10:46:35.356Z,1.67
2023-04-03T10:48:14.296Z,1.40
2023-04-03T10:49:59.440Z,1.30
2023-04-03T10:51:37.757Z,1.67
2023-04-03T10:53:14.490Z,1.37
2023-04-03T10:54:51.215Z,1.20
2023-04-03T10:56:28.158Z,1.30
2023-04-03T10:58:02.544Z,1.43
2023-04-03T10:59:38.315Z,1.63
2023-04-03T11:01:13.360Z,1.30
2023-04-03T11:02:52.951Z,1.60
2023-04-03T11:04:28.806Z,1.23
2023-04-03T11:06:03.544Z,1.40
2023-04-03T11:07:40.923Z,1.60
2023-04-03T11:09:18.615Z,1.60
2023-04-03T11:10:53.328Z,1.50
2023-04-03T11:12:29.312Z,1.40
2023-04-03T11:14:04.831Z,1.33
2023-04-03T11:15:38.540Z,1.50
2023-04-03T11:17:14.781Z,1.50
2023-04-03T11:18:51.368Z,1.20
2023-04-03T11:20:28.634Z,1.37
2023-04-03T11:22:05.733Z,1.20
2023-04-03T11:23:48.969Z,1.50
2023-04-03T11:25:24.532Z,1.50
2023-04-03T11:26:58.975Z,1.10
2023-04-03T11:28:32.992Z,1.13
2023-04-03T11:30:08.351Z,1.43
2023-04-03T11:31:47.038Z,2.20
2023-04-03T11:33:27.528Z,1.43
2023-04-03T11:35:03.368Z,1.30
2023-04-03T11:36:41.488Z,1.10
2023-04-03T11:38:20.193Z,1.10
2023-04-03T11:39:57.264Z,1.30
2023-04-03T11:41:31.656Z,1.37
2023-04-03T11:43:09.701Z,1.60
2023-04-03T11:44:43.137Z,1.20
2023-04-03T11:46:19.871Z,1.20
2023-04-03T11:47:54.010Z,1.40
2023-04-03T11:49:45.949Z,1.77
2023-04-03T11:51:43.751Z,1.43
2023-04-03T11:53:35.493Z,1.30
2023-04-03T11:55:23.773Z,1.40
2023-04-03T11:56:57.161Z,1.90
2023-04-03T11:58:32.260Z,1.43
2023-04-03T12:00:20.539Z,2.30
2023-04-03T12:01:54.600Z,1.70
2023-04-03T12:03:55.279Z,1.43
2023-04-03T12:05:29.655Z,1.93
2023-04-03T12:07:17.733Z,1.60
2023-04-03T12:08:53.644Z,1.40
2023-04-03T12:10:32.354Z,1.97
2023-04-03T12:12:20.994Z,1.40
2023-04-03T12:14:07.238Z,1.20
2023-04-03T12:15:49.289Z,1.40
2023-04-03T12:17:25.942Z,1.30
2023-04-03T12:19:01.058Z,1.80
2023-04-03T12:21:01.434Z,1.33
2023-04-03T12:22:36.143Z,1.13
2023-04-03T12:24:27.617Z,1.40
2023-04-03T12:26:06.425Z,1.27
2023-04-03T12:27:43.341Z,1.30
2023-04-03T12:29:19.722Z,1.40
2023-04-03T12:30:53.175Z,1.43
2023-04-03T12:32:35.062Z,1.30
2023-04-03T12:34:15.385Z,1.40
2023-04-03T12:35:58.103Z,1.57
2023-04-03T12:37:42.629Z,1.83
2023-04-03T12:39:27.828Z,1.80
2023-04-03T12:41:06.976Z,1.70
2023-04-03T12:43:01.242Z,1.30
2023-04-03T12:44:43.041Z,1.50
2023-04-03T12:46:18.075Z,2.90
2023-04-03T12:47:52.090Z,1.67
2023-04-03T12:49:32.380Z,1.60
2023-04-03T12:51:06.391Z,1.50
2023-04-03T12:52:44.230Z,1.60
2023-04-03T12:54:18.019Z,1.40
2023-04-03T12:55:55.988Z,1.40
2023-04-03T12:57:29.673Z,1.70
2023-04-03T12:59:16.673Z,1.40
2023-04-03T13:01:01.110Z,1.30
2023-04-03T13:02:35.776Z,1.33
2023-04-03T13:04:09.565Z,1.30
2023-04-03T13:05:47.072Z,1.20
2023-04-03T13:07:29.619Z,1.40
2023-04-03T13:09:05.091Z,1.50
2023-04-03T13:10:46.298Z,1.40
2023-04-03T13:12:19.683Z,1.47
2023-04-03T13:14:00.306Z,1.33
2023-04-03T13:15:42.465Z,1.33
2023-04-03T13:17:17.005Z,1.50
2023-04-03T13:18:53.541Z,1.40
2023-04-03T13:20:29.210Z,1.43
2023-04-03T13:22:04.910Z,1.87
2023-04-03T13:23:41.164Z,1.60
2023-04-03T13:25:17.743Z,1.63
2023-04-03T13:26:51.338Z,1.50
2023-04-03T13:28:27.010Z,1.40
2023-04-03T13:30:02.251Z,1.43
2023-04-03T13:31:36.354Z,1.33
2023-04-03T13:33:21.774Z,1.73
2023-04-03T13:34:55.792Z,1.23
2023-04-03T13:36:33.395Z,1.67
2023-04-03T13:38:08.758Z,1.50
2023-04-03T13:39:43.294Z,1.57
2023-04-03T13:41:28.574Z,1.30
2023-04-03T13:43:03.600Z,1.60
2023-04-03T13:44:37.885Z,1.60
2023-04-03T13:46:25.101Z,1.50
2023-04-03T13:48:22.130Z,1.83
2023-04-03T13:50:04.486Z,1.47
2023-04-03T13:51:41.279Z,1.80
2023-04-03T13:53:16.477Z,1.73
2023-04-03T13:54:50.446Z,1.47
2023-04-03T13:56:27.555Z,1.40
2023-04-03T13:58:03.740Z,1.60
2023-04-03T13:59:38.072Z,1.30
2023-04-03T14:01:13.949Z,1.70
2023-04-03T14:02:50.429Z,1.97
2023-04-03T14:04:25.016Z,1.90
2023-04-03T14:05:58.481Z,1.90
2023-04-03T14:07:32.635Z,1.30
2023-04-03T14:09:06.350Z,1.60
2023-04-03T14:10:39.904Z,1.50
2023-04-03T14:12:30.045Z,1.50
2023-04-03T14:14:09.427Z,1.67
2023-04-03T14:15:43.332Z,1.80
2023-04-03T14:17:24.613Z,1.70
2023-04-03T14:18:59.093Z,1.60
2023-04-03T14:20:32.483Z,1.50
2023-04-03T14:22:13.861Z,1.60
2023-04-03T14:23:47.597Z,1.70
2023-04-03T14:25:21.370Z,1.60
2023-04-03T14:26:55.613Z,1.57
2023-04-03T14:28:29.001Z,1.90
2023-04-03T14:30:05.050Z,1.90
2023-04-03T14:31:38.639Z,2.47
2023-04-03T14:33:13.418Z,2.10
2023-04-03T14:34:47.160Z,1.80
2023-04-03T14:36:23.115Z,1.47
2023-04-03T14:37:56.629Z,1.53
2023-04-03T14:39:31.172Z,1.53
2023-04-03T14:41:15.624Z,1.60
2023-04-03T14:42:50.469Z,1.63
2023-04-03T14:44:24.150Z,1.60
2023-04-03T14:45:58.918Z,1.77
2023-04-03T14:47:33.086Z,1.40
2023-04-03T14:49:08.654Z,1.20
2023-04-03T14:50:46.993Z,1.53
2023-04-03T14:52:29.312Z,1.60
2023-04-03T14:54:03.393Z,1.70
2023-04-03T14:55:37.067Z,1.50
2023-04-03T14:57:11.899Z,1.60
2023-04-03T14:58:45.923Z,1.80
2023-04-03T15:00:20.678Z,1.60
2023-04-03T15:01:55.497Z,1.90
2023-04-03T15:03:29.106Z,1.70
2023-04-03T15:05:05.048Z,1.67
2023-04-03T15:06:38.477Z,1.80
2023-04-03T15:08:20.073Z,1.80
2023-04-03T15:09:53.591Z,1.80
2023-04-03T15:11:27.730Z,1.57
2023-04-03T15:13:01.537Z,1.87
2023-04-03T15:14:37.202Z,1.67
2023-04-03T15:16:17.514Z,1.83
2023-04-03T15:17:54.905Z,1.67
2023-04-03T15:19:28.658Z,1.73
2023-04-03T15:21:02.690Z,1.90
2023-04-03T15:22:36.035Z,1.83
2023-04-03T15:24:09.646Z,1.50
2023-04-03T15:25:43.694Z,1.97
2023-04-03T15:27:17.425Z,1.80
2023-04-03T15:28:50.812Z,1.87
2023-04-03T15:30:24.246Z,1.70
2023-04-03T15:31:57.846Z,1.70
2023-04-03T15:33:32.878Z,1.70
2023-04-03T15:35:06.744Z,1.73
2023-04-03T15:36:40.149Z,1.67
2023-04-03T15:38:13.625Z,1.70
2023-04-03T15:39:47.104Z,1.50
2023-04-03T15:41:20.461Z,1.50
2023-04-03T15:42:54.561Z,1.67
2023-04-03T15:44:28.082Z,1.43
2023-04-03T15:46:01.939Z,1.57
2023-04-03T15:47:35.548Z,1.70
2023-04-03T15:49:10.379Z,1.97
2023-04-03T15:50:43.949Z,2.03
2023-04-03T15:52:17.348Z,1.97
2023-04-03T15:53:50.808Z,1.70
2023-04-03T15:55:24.426Z,1.23
2023-04-03T15:56:58.254Z,1.50
2023-04-03T15:58:32.070Z,1.50
2023-04-03T16:00:05.858Z,1.50
2023-04-03T16:01:41.493Z,1.30
2023-04-03T16:03:17.475Z,1.40
2023-04-03T16:04:52.538Z,1.47
2023-04-03T16:06:27.045Z,1.10
2023-04-03T16:08:01.266Z,1.30
2023-04-03T16:09:35.815Z,1.60
2023-04-03T16:11:09.478Z,1.50
2023-04-03T16:12:42.853Z,1.40
2023-04-03T16:14:16.236Z,1.80
2023-04-03T16:15:50.291Z,1.53
2023-04-03T16:17:23.804Z,1.67
2023-04-03T16:18:58.332Z,1.80
2023-04-03T16:20:33.565Z,1.50
2023-04-03T16:22:07.347Z,1.73
2023-04-03T16:23:40.788Z,1.40
2023-04-03T16:25:14.492Z,1.30
2023-04-03T16:26:47.898Z,1.43
2023-04-03T16:28:21.321Z,1.30
2023-04-03T16:29:54.731Z,1.63
2023-04-03T16:31:29.305Z,1.40
2023-04-03T16:33:02.942Z,1.57
2023-04-03T16:34:36.428Z,1.63
2023-04-03T16:36:11.351Z,1.63
2023-04-03T16:37:44.732Z,1.80
2023-04-03T16:39:18.190Z,1.40
2023-04-03T16:40:53.296Z,1.63
2023-04-03T16:42:27.121Z,1.60
2023-04-03T16:44:00.571Z,1.60
2023-04-03T16:45:34.158Z,1.50
2023-04-03T16:47:08.122Z,1.70
2023-04-03T16:48:41.578Z,1.70
2023-04-03T16:50:15.050Z,1.60
2023-04-03T16:51:51.073Z,1.40
2023-04-03T16:53:24.546Z,1.60
2023-04-03T16:54:59.766Z,1.73
2023-04-03T16:56:33.296Z,1.93
2023-04-03T16:58:06.746Z,1.80
2023-04-03T16:59:40.336Z,1.53
2023-04-03T17:01:14.357Z,1.80
2023-04-03T17:02:49.615Z,1.80
2023-04-03T17:04:23.061Z,1.77
2023-04-03T17:05:56.550Z,1.90
2023-04-03T17:07:31.297Z,1.83
2023-04-03T17:09:05.401Z,1.53
2023-04-03T17:10:38.779Z,1.70
2023-04-03T17:12:12.160Z,2.13
2023-04-03T17:13:45.553Z,2.37
2023-04-03T17:15:19.993Z,2.20
2023-04-03T17:16:53.917Z,1.87
2023-04-03T17:18:27.570Z,2.03
2023-04-03T17:20:01.127Z,1.90
2023-04-03T17:21:35.180Z,2.13
2023-04-03T17:23:10.473Z,2.10
2023-04-03T17:24:43.902Z,2.00
2023-04-03T17:26:17.426Z,2.90
2023-04-03T17:27:50.817Z,2.47
2023-04-03T17:29:24.189Z,2.20
2023-04-03T17:30:57.919Z,2.80
2023-04-03T17:32:31.398Z,2.50
2023-04-03T17:34:05.105Z,2.00
2023-04-03T17:35:38.664Z,2.30
2023-04-03T17:37:12.232Z,2.40
2023-04-03T17:38:48.344Z,2.80
2023-04-03T17:40:21.775Z,2.50
2023-04-03T17:41:55.709Z,2.50
2023-04-03T17:43:29.146Z,2.53
2023-04-03T17:45:03.221Z,2.60
2023-04-03T17:46:36.696Z,2.50
2023-04-03T17:48:10.245Z,2.90
2023-04-03T17:49:43.821Z,2.87
2023-04-03T17:51:18.401Z,2.77
2023-04-03T17:52:51.826Z,2.73
2023-04-03T17:54:26.713Z,2.40
2023-04-03T17:55:59.121Z,2.10
2023-04-03T17:57:32.722Z,1.63
2023-04-03T17:59:06.858Z,1.87
2023-04-03T18:00:40.531Z,1.90
2023-04-03T18:02:14.090Z,1.70
2023-04-03T18:03:48.483Z,1.80
2023-04-03T18:05:21.900Z,2.00
2023-04-03T18:06:56.805Z,2.50
2023-04-03T18:08:31.008Z,2.63
2023-04-03T18:10:06.913Z,2.27
2023-04-03T18:11:40.573Z,2.40
2023-04-03T18:13:15.411Z,2.60
2023-04-03T18:14:50.421Z,3.60
2023-04-03T18:16:23.903Z,3.13
2023-04-03T18:17:58.100Z,2.80
2023-04-03T18:19:31.639Z,2.87
2023-04-03T18:21:05.566Z,2.57
2023-04-03T18:22:39.100Z,2.33
2023-04-03T18:24:14.038Z,2.00
2023-04-03T18:25:48.759Z,2.27
2023-04-03T18:27:23.076Z,1.93
2023-04-03T18:28:59.028Z,2.30
2023-04-03T18:30:32.488Z,1.80
2023-04-03T18:32:06.570Z,2.20
2023-04-03T18:33:40.036Z,2.37
2023-04-03T18:35:13.573Z,2.17
2023-04-03T18:36:47.539Z,2.00
2023-04-03T18:38:21.145Z,2.30
2023-04-03T18:39:54.510Z,2.17
2023-04-03T18:41:32.812Z,2.27
2023-04-03T18:43:06.496Z,2.10
2023-04-03T18:44:41.022Z,2.40
2023-04-03T18:46:14.396Z,2.60
2023-04-03T18:47:47.933Z,1.90
2023-04-03T18:49:21.837Z,2.10
2023-04-03T18:50:56.371Z,2.30
2023-04-03T18:52:29.727Z,2.60
2023-04-03T18:54:04.160Z,2.70
2023-04-03T18:55:38.508Z,3.03
2023-04-03T18:57:13.249Z,2.47
2023-04-03T18:58:46.674Z,2.33
2023-04-03T19:00:20.449Z,2.33
2023-04-03T19:01:53.945Z,2.30
2023-04-03T19:03:27.865Z,2.20
2023-04-03T19:05:01.434Z,2.53
2023-04-03T19:06:35.836Z,2.53
2023-04-03T19:08:09.284Z,2.73
2023-04-03T19:09:42.686Z,2.80
2023-04-03T19:11:16.270Z,3.33
2023-04-03T19:12:52.040Z,3.40
2023-04-03T19:14:25.445Z,3.23
2023-04-03T19:15:59.960Z,3.03
2023-04-03T19:17:33.353Z,2.67
2023-04-03T19:19:06.861Z,2.77
2023-04-03T19:20:40.206Z,2.70
2023-04-03T19:22:13.627Z,2.40
2023-04-03T19:23:48.679Z,2.17
2023-04-03T19:25:22.349Z,2.47
2023-04-03T19:26:55.686Z,2.37
2023-04-03T19:28:30.694Z,2.50
2023-04-03T19:30:04.070Z,2.37
2023-04-03T19:31:38.393Z,2.40
2023-04-03T19:33:11.906Z,2.70
2023-04-03T19:34:45.357Z,2.60
2023-04-03T19:36:19.001Z,2.40
2023-04-03T19:37:53.532Z,2.60
2023-04-03T19:39:29.046Z,2.53
2023-04-03T19:41:02.465Z,2.57
2023-04-03T19:42:40.098Z,2.80
2023-04-03T19:44:14.955Z,2.57
2023-04-03T19:45:48.857Z,2.27
2023-04-03T19:47:22.384Z,2.60
2023-04-03T19:48:56.044Z,2.33
2023-04-03T19:50:29.476Z,2.70
2023-04-03T19:52:02.847Z,2.80
2023-04-03T19:53:36.270Z,3.27
2023-04-03T19:55:10.009Z,2.53
2023-04-03T19:56:43.353Z,2.83
2023-04-03T19:58:16.925Z,3.23
2023-04-03T19:59:51.687Z,2.60
2023-04-03T20:01:27.790Z,2.67
2023-04-03T20:03:01.733Z,2.73
2023-04-03T20:04:35.422Z,2.90
2023-04-03T20:06:08.821Z,2.90
2023-04-03T20:07:42.276Z,2.90
2023-04-03T20:09:16.073Z,2.80
2023-04-03T20:10:49.453Z,2.97
2023-04-03T20:12:22.872Z,2.83
2023-04-03T20:13:56.802Z,3.00
2023-04-03T20:15:40.123Z,3.17
2023-04-03T20:17:13.581Z,3.30
2023-04-03T20:18:47.560Z,2.77
2023-04-03T20:20:20.984Z,2.80
2023-04-03T20:21:55.069Z,2.83
2023-04-03T20:23:28.492Z,3.37
2023-04-03T20:25:06.400Z,3.33
2023-04-03T20:26:46.046Z,3.40
2023-04-03T20:28:19.621Z,3.13
2023-04-03T20:29:53.003Z,2.90
2023-04-03T20:31:28.352Z,3.50
2023-04-03T20:33:01.750Z,3.20
2023-04-03T20:34:35.208Z,3.40
2023-04-03T20:36:09.081Z,3.37
2023-04-03T20:37:44.308Z,3.50
2023-04-03T20:39:19.012Z,3.20
2023-04-03T20:40:52.683Z,2.90
2023-04-03T20:42:26.087Z,2.80
2023-04-03T20:44:00.386Z,3.33
2023-04-03T20:45:33.834Z,3.20
2023-04-03T20:47:09.512Z,3.20
2023-04-03T20:48:43.127Z,3.20
2023-04-03T20:50:16.721Z,2.97
2023-04-03T20:51:51.239Z,3.30
2023-04-03T20:53:24.844Z,3.53
2023-04-03T20:54:58.194Z,3.40
2023-04-03T20:56:33.547Z,3.40
2023-04-03T20:58:06.969Z,3.90
2023-04-03T20:59:42.298Z,3.27
2023-04-03T21:01:16.635Z,3.03
2023-04-03T21:02:51.521Z,3.20
2023-04-03T21:04:26.788Z,3.20
2023-04-03T21:06:00.986Z,3.03
2023-04-03T21:07:53.213Z,3.03
2023-04-03T21:09:45.666Z,3.37
2023-04-03T21:11:37.723Z,3.33
2023-04-03T21:13:29.732Z,3.03